This is the latest recevied weather packets stored in our database for station/object N2VSB-13. If no packets are shown the sender has not sent any weather packets the latest 10 day(s).
| Time | Temp. | Humidity | Pressure | Rain* | Wind** | Luminosity | Snow |
|---|---|---|---|---|---|---|---|
| 1777266319 | 8.89° C | 71% | 1021.6 hPa | 0 mm | - | 0 W/m² | - |
| 1777264517 | 8.89° C | 71% | 1021.5 hPa | 0 mm | - | 0 W/m² | - |
| 1777263917 | 8.89° C | 67% | 1021.4 hPa | 0 mm | - | 0 W/m² | - |
| 1777256719 | 11.11° C | 55% | 1020.7 hPa | 0 mm | - | 0 W/m² | - |
| 1777256136 | 11.11° C | 56% | 1020.6 hPa | 0 mm | - | 0 W/m² | - |
| 1777253117 | 12.22° C | 54% | 1020.3 hPa | 0 mm | - | 0 W/m² | - |
| 1777252517 | 12.78° C | 53% | 1020.1 hPa | 0 mm | - | 0 W/m² | - |
| 1777251318 | 13.33° C | 48% | 1019.8 hPa | 0 mm | - | 0 W/m² | - |
| 1777250718 | 13.89° C | 47% | 1019.7 hPa | 0 mm | - | 0 W/m² | - |
| 1777248919 | 15.56° C | 42% | 1019.2 hPa | 0 mm | - | 0 W/m² | - |
| 1777245337 | 17.78° C | 34% | 1018.7 hPa | 0 mm | - | 18 W/m² | - |
| 1777231517 | 19.44° C | 31% | 1018.4 hPa | 0 mm | - | 432 W/m² | - |
| 1777227919 | 19.44° C | 35% | 1018.8 hPa | 0 mm | - | 836 W/m² | - |
| 1777226119 | 18.89° C | 34% | 1018.9 hPa | 0 mm | - | 820 W/m² | - |
| 1777217117 | 14.44° C | 60% | 1020.1 hPa | 0 mm | - | 418 W/m² | - |
| 1777214717 | 12.22° C | 68% | 1020.3 hPa | 0 mm | - | 428 W/m² | - |
| 1777209338 | 6.11° C | 100% | 1020.7 hPa | 0 mm | - | 240 W/m² | - |
| 1777207520 | 5.56° C | 99% | 1020.8 hPa | 0 mm | - | 158 W/m² | - |
| 1777196722 | 3.33° C | 97% | 1018.6 hPa | 0 mm | - | 0 W/m² | - |
| 1777194318 | 3.89° C | 97% | 1018.6 hPa | 0 mm | - | 0 W/m² | - |
| 1777191956 | 5° C | 96% | 1018.2 hPa | 0 mm | - | 0 W/m² | - |
| 1777188317 | 5.56° C | 96% | 1018.2 hPa | 0 mm | - | 0 W/m² | - |
| 1777185338 | 6.11° C | 96% | 1018.3 hPa | 0 mm | - | 0 W/m² | - |
* Rain latest hour (hover to see other rain measurements)
** Current wind speed in m/s (hover to see current wind gust speed)